createdAt,value
2022-10-20T00:02:05.359Z,8.36
2022-10-20T00:04:34.013Z,8.36
2022-10-20T00:07:02.646Z,8.40
2022-10-20T00:09:31.002Z,8.44
2022-10-20T00:11:59.759Z,8.41
2022-10-20T00:14:28.545Z,8.45
2022-10-20T00:16:56.841Z,8.46
2022-10-20T00:19:26.620Z,8.47
2022-10-20T00:21:55.416Z,8.36
2022-10-20T00:24:24.224Z,8.40
2022-10-20T00:26:52.944Z,8.39
2022-10-20T00:29:21.640Z,8.31
2022-10-20T00:31:49.973Z,8.32
2022-10-20T00:34:18.342Z,8.29
2022-10-20T00:36:51.178Z,8.36
2022-10-20T00:39:19.981Z,8.33
2022-10-20T00:41:48.584Z,8.29
2022-10-20T00:44:48.714Z,8.23
2022-10-20T00:47:22.256Z,8.21
2022-10-20T00:49:51.383Z,8.26
2022-10-20T00:52:23.535Z,8.22
2022-10-20T00:54:52.252Z,8.24
2022-10-20T00:57:21.013Z,8.25
2022-10-20T00:59:49.823Z,8.20
2022-10-20T01:02:18.611Z,8.18
2022-10-20T01:04:47.382Z,8.15
2022-10-20T01:07:15.980Z,8.15
2022-10-20T01:09:46.079Z,8.11
2022-10-20T01:12:29.271Z,8.04
2022-10-20T01:15:10.664Z,8.01
2022-10-20T01:17:46.509Z,7.94
2022-10-20T01:20:45.949Z,7.89
2022-10-20T01:24:01.392Z,7.89
2022-10-20T01:26:57.742Z,7.85
2022-10-20T01:29:33.745Z,7.73
2022-10-20T01:32:15.834Z,7.67
2022-10-20T01:34:53.071Z,7.60
2022-10-20T01:37:48.332Z,7.59
2022-10-20T01:40:28.712Z,7.63
2022-10-20T01:43:01.219Z,7.63
2022-10-20T01:45:36.075Z,7.64
2022-10-20T01:48:09.938Z,7.68
2022-10-20T01:50:40.992Z,7.61
2022-10-20T01:53:10.148Z,7.60
2022-10-20T01:55:39.968Z,7.50
2022-10-20T01:58:38.595Z,7.46
2022-10-20T02:01:21.695Z,7.39
2022-10-20T02:03:55.973Z,7.39
2022-10-20T02:06:34.047Z,7.44
2022-10-20T02:09:06.702Z,7.43
2022-10-20T02:11:45.860Z,7.44
2022-10-20T02:14:18.559Z,7.49
2022-10-20T02:16:52.219Z,7.45
2022-10-20T02:19:24.766Z,7.41
2022-10-20T02:21:57.503Z,7.34
2022-10-20T02:24:30.655Z,7.36
2022-10-20T02:27:03.685Z,7.27
2022-10-20T02:29:40.512Z,7.33
2022-10-20T02:32:13.091Z,7.37
2022-10-20T02:34:42.620Z,7.38
2022-10-20T02:37:11.539Z,7.36
2022-10-20T02:39:40.413Z,7.29
2022-10-20T02:42:09.158Z,7.28
2022-10-20T02:44:37.887Z,7.24
2022-10-20T02:47:06.987Z,7.23
2022-10-20T02:49:36.782Z,7.30
2022-10-20T02:52:05.417Z,7.24
2022-10-20T02:54:33.961Z,7.23
2022-10-20T02:57:02.678Z,7.14
2022-10-20T02:59:31.372Z,7.09
2022-10-20T03:02:00.150Z,7.08
2022-10-20T03:04:28.996Z,7.07
2022-10-20T03:06:58.798Z,7.06
2022-10-20T03:09:27.441Z,7.03
2022-10-20T03:11:56.120Z,7.01
2022-10-20T03:14:24.851Z,6.93
2022-10-20T03:16:53.191Z,6.84
2022-10-20T03:19:21.564Z,6.88
2022-10-20T03:21:50.218Z,6.82
2022-10-20T03:24:20.008Z,6.79
2022-10-20T03:26:48.691Z,6.68
2022-10-20T03:29:17.502Z,6.69
2022-10-20T03:31:45.805Z,6.69
2022-10-20T03:34:14.300Z,6.70
2022-10-20T03:36:42.717Z,6.72
2022-10-20T03:39:11.057Z,6.67
2022-10-20T03:41:40.803Z,6.69
2022-10-20T03:44:10.480Z,6.70
2022-10-20T03:46:39.141Z,6.63
2022-10-20T03:49:07.575Z,6.63
2022-10-20T03:51:36.284Z,6.65
2022-10-20T03:54:04.951Z,6.60
2022-10-20T03:56:33.837Z,6.55
2022-10-20T04:01:34.726Z,6.48
2022-10-20T04:04:03.572Z,6.52
2022-10-20T04:06:32.764Z,6.52
2022-10-20T04:09:01.536Z,6.46
2022-10-20T04:11:30.223Z,6.47
2022-10-20T04:13:59.948Z,6.48
2022-10-20T04:16:29.701Z,6.48
2022-10-20T04:18:58.027Z,6.47
2022-10-20T04:21:26.855Z,6.38
2022-10-20T04:23:55.768Z,6.26
2022-10-20T04:26:25.033Z,6.19
2022-10-20T04:28:53.430Z,6.22
2022-10-20T04:31:21.806Z,6.27
2022-10-20T04:33:51.523Z,6.28
2022-10-20T04:36:20.190Z,6.29
2022-10-20T04:38:48.627Z,6.30
2022-10-20T04:41:17.311Z,6.30
2022-10-20T04:43:50.532Z,6.30
2022-10-20T04:46:19.386Z,6.27
2022-10-20T04:48:48.041Z,6.19
2022-10-20T04:51:18.892Z,6.17
2022-10-20T04:53:47.705Z,6.18
2022-10-20T04:56:19.455Z,6.13
2022-10-20T04:58:50.067Z,6.18
2022-10-20T05:01:19.349Z,6.09
2022-10-20T05:03:48.128Z,6.13
2022-10-20T05:06:21.069Z,6.16
2022-10-20T05:08:51.802Z,6.23
2022-10-20T05:11:23.131Z,6.18
2022-10-20T05:13:51.727Z,6.19
2022-10-20T05:16:21.025Z,6.14
2022-10-20T05:18:52.120Z,6.14
2022-10-20T05:21:25.251Z,6.10
2022-10-20T05:23:57.603Z,6.10
2022-10-20T05:26:28.306Z,6.11
2022-10-20T05:28:56.989Z,6.09
2022-10-20T05:31:25.847Z,6.05
2022-10-20T05:33:57.316Z,6.10
2022-10-20T05:36:28.350Z,6.10
2022-10-20T05:38:57.879Z,6.13
2022-10-20T05:41:32.155Z,6.14
2022-10-20T05:44:06.185Z,6.14
2022-10-20T05:46:37.913Z,6.16
2022-10-20T05:49:06.570Z,6.15
2022-10-20T05:51:37.675Z,6.16
2022-10-20T05:54:06.177Z,6.12
2022-10-20T05:56:34.860Z,6.19
2022-10-20T05:59:03.504Z,6.21
2022-10-20T06:01:40.086Z,6.24
2022-10-20T06:04:09.644Z,6.29
2022-10-20T06:06:39.578Z,6.33
2022-10-20T06:09:09.502Z,6.32
2022-10-20T06:11:39.658Z,6.40
2022-10-20T06:14:09.307Z,6.49
2022-10-20T06:16:38.257Z,6.49
2022-10-20T06:19:07.285Z,6.49
2022-10-20T06:21:37.340Z,6.54
2022-10-20T06:24:08.014Z,6.54
2022-10-20T06:26:37.682Z,6.56
2022-10-20T06:29:07.848Z,6.58
2022-10-20T06:31:39.027Z,6.59
2022-10-20T06:34:08.802Z,6.64
2022-10-20T06:36:39.042Z,6.60
2022-10-20T06:39:11.652Z,6.60
2022-10-20T06:41:40.422Z,6.56
2022-10-20T06:44:15.926Z,6.55
2022-10-20T06:46:45.736Z,6.54
2022-10-20T06:49:15.530Z,6.57
2022-10-20T06:51:43.870Z,6.68
2022-10-20T06:54:13.812Z,6.81
2022-10-20T06:56:42.598Z,6.95
2022-10-20T06:59:11.262Z,7.17
2022-10-20T07:01:41.010Z,7.46
2022-10-20T07:04:16.068Z,7.71
2022-10-20T07:06:47.720Z,8.00
2022-10-20T07:09:20.753Z,8.23
2022-10-20T07:11:53.069Z,8.60
2022-10-20T07:14:22.130Z,8.78
2022-10-20T07:16:50.521Z,9.12
2022-10-20T07:19:18.854Z,9.35
2022-10-20T07:21:47.498Z,9.54
2022-10-20T07:24:17.313Z,9.63
2022-10-20T07:26:45.663Z,9.57
2022-10-20T07:29:14.975Z,10.07
2022-10-20T07:31:46.058Z,10.39
2022-10-20T07:34:25.852Z,10.60
2022-10-20T07:36:56.444Z,11.05
2022-10-20T07:39:27.342Z,11.12
2022-10-20T07:41:55.714Z,10.83
2022-10-20T07:44:25.111Z,10.87
2022-10-20T07:46:53.581Z,11.20
2022-10-20T07:52:10.330Z,11.94
2022-10-20T07:54:40.070Z,12.12
2022-10-20T07:57:08.424Z,12.51
2022-10-20T07:59:37.209Z,12.55
2022-10-20T08:02:06.192Z,12.52
2022-10-20T08:04:34.611Z,13.17
2022-10-20T08:07:03.653Z,13.15
2022-10-20T08:09:33.798Z,13.18
2022-10-20T08:12:04.078Z,13.27
2022-10-20T08:14:33.802Z,13.55
2022-10-20T08:17:02.888Z,13.53
2022-10-20T08:19:35.155Z,13.36
2022-10-20T08:22:03.797Z,14.00
2022-10-20T08:24:32.544Z,14.45
2022-10-20T08:27:02.912Z,14.12
2022-10-20T08:29:31.299Z,13.93
2022-10-20T08:31:59.695Z,14.02
2022-10-20T08:34:28.543Z,13.63
2022-10-20T08:36:57.270Z,13.39
2022-10-20T08:39:25.708Z,13.14
2022-10-20T08:42:07.969Z,13.49
2022-10-20T08:44:41.370Z,13.42
2022-10-20T08:47:29.215Z,13.99
2022-10-20T08:50:02.333Z,13.88
2022-10-20T08:52:30.755Z,13.81
2022-10-20T08:55:00.135Z,14.00
2022-10-20T08:57:35.926Z,14.33
2022-10-20T09:00:18.342Z,14.83
2022-10-20T09:02:48.032Z,14.54
2022-10-20T09:05:20.547Z,14.07
2022-10-20T09:07:50.165Z,14.00
2022-10-20T09:10:34.504Z,12.86
2022-10-20T09:13:07.657Z,12.74
2022-10-20T09:15:39.412Z,14.11
2022-10-20T09:18:13.313Z,15.91
2022-10-20T09:20:58.928Z,16.39
2022-10-20T09:23:41.047Z,16.37
2022-10-20T09:26:25.006Z,17.05
2022-10-20T09:29:14.360Z,17.56
2022-10-20T09:31:47.601Z,16.38
2022-10-20T09:34:26.388Z,15.69
2022-10-20T09:37:02.987Z,15.53
2022-10-20T09:39:42.526Z,16.41
2022-10-20T09:42:17.189Z,16.80
2022-10-20T09:44:53.507Z,16.94
2022-10-20T09:47:25.476Z,16.93
2022-10-20T09:50:01.313Z,16.06
2022-10-20T09:52:38.187Z,15.78
2022-10-20T09:55:23.687Z,15.33
2022-10-20T09:57:52.427Z,15.19
2022-10-20T10:00:36.733Z,14.90
2022-10-20T10:03:20.013Z,16.12
2022-10-20T10:05:51.844Z,16.93
2022-10-20T10:08:22.886Z,16.89
2022-10-20T10:11:04.511Z,16.11
2022-10-20T10:13:42.619Z,15.74
2022-10-20T10:16:15.373Z,15.88
2022-10-20T10:18:49.472Z,16.07
2022-10-20T10:21:18.819Z,16.15
2022-10-20T10:23:56.430Z,17.03
2022-10-20T10:26:47.166Z,17.16
2022-10-20T10:29:25.161Z,16.72
2022-10-20T10:32:01.659Z,16.45
2022-10-20T10:35:10.440Z,16.78
2022-10-20T10:37:43.335Z,16.94
2022-10-20T10:40:20.227Z,17.31
2022-10-20T10:43:30.495Z,17.74
2022-10-20T10:46:05.810Z,17.49
2022-10-20T10:49:08.746Z,17.45
2022-10-20T10:51:58.713Z,17.72
2022-10-20T10:54:45.063Z,17.43
2022-10-20T10:57:23.048Z,17.95
2022-10-20T10:59:54.199Z,18.21
2022-10-20T11:03:00.644Z,18.45
2022-10-20T11:05:54.069Z,18.45
2022-10-20T11:08:45.482Z,18.42
2022-10-20T11:11:28.938Z,18.59
2022-10-20T11:14:14.436Z,17.38
2022-10-20T11:16:55.110Z,16.70
2022-10-20T11:19:53.087Z,16.36
2022-10-20T11:22:39.183Z,16.45
2022-10-20T11:25:27.700Z,17.43
2022-10-20T11:27:58.867Z,17.39
2022-10-20T11:30:28.481Z,17.45
2022-10-20T11:33:05.348Z,17.71
2022-10-20T11:35:41.533Z,18.14
2022-10-20T11:38:25.055Z,18.20
2022-10-20T11:41:02.294Z,17.97
2022-10-20T11:43:40.445Z,17.96
2022-10-20T11:46:16.029Z,17.70
2022-10-20T11:48:52.043Z,17.23
2022-10-20T11:52:34.937Z,17.52
2022-10-20T11:55:38.962Z,17.23
2022-10-20T11:58:31.323Z,17.70
2022-10-20T12:01:19.250Z,17.21
2022-10-20T12:04:30.448Z,17.17
2022-10-20T12:07:32.084Z,16.50
2022-10-20T12:10:35.984Z,16.46
2022-10-20T12:13:24.372Z,16.67
2022-10-20T12:15:54.960Z,16.35
2022-10-20T12:18:29.086Z,16.25
2022-10-20T12:21:04.069Z,16.07
2022-10-20T12:24:15.295Z,15.58
2022-10-20T12:27:19.965Z,15.14
2022-10-20T12:30:05.877Z,14.85
2022-10-20T12:32:54.526Z,14.79
2022-10-20T12:36:02.716Z,14.51
2022-10-20T12:38:32.824Z,14.40
2022-10-20T12:41:02.959Z,14.59
2022-10-20T12:43:38.559Z,14.77
2022-10-20T12:46:17.056Z,15.54
2022-10-20T12:48:49.936Z,17.53
2022-10-20T12:51:27.793Z,19.27
2022-10-20T12:54:03.588Z,18.65
2022-10-20T12:56:40.168Z,17.73
2022-10-20T12:59:47.391Z,17.84
2022-10-20T13:02:45.028Z,17.58
2022-10-20T13:05:43.445Z,16.93
2022-10-20T13:08:34.019Z,17.94
2022-10-20T13:11:44.720Z,18.69
2022-10-20T13:14:51.337Z,19.24
2022-10-20T13:17:56.857Z,19.03
2022-10-20T13:20:38.658Z,19.25
2022-10-20T13:23:11.909Z,19.43
2022-10-20T13:25:46.283Z,19.20
2022-10-20T13:28:21.741Z,18.23
2022-10-20T13:31:15.558Z,18.45
2022-10-20T13:34:04.627Z,18.48
2022-10-20T13:37:00.149Z,17.22
2022-10-20T13:39:42.053Z,16.48
2022-10-20T13:42:42.353Z,15.71
2022-10-20T13:45:28.412Z,15.13
2022-10-20T13:48:16.013Z,14.77
2022-10-20T13:50:50.850Z,14.74
2022-10-20T13:53:27.012Z,14.64
2022-10-20T13:56:03.277Z,14.49
2022-10-20T13:58:32.853Z,14.54
2022-10-20T14:01:05.302Z,14.40
2022-10-20T14:03:42.548Z,14.39
2022-10-20T14:06:38.057Z,14.45
2022-10-20T14:09:17.675Z,14.35
2022-10-20T14:11:48.423Z,14.22
2022-10-20T14:14:23.038Z,14.16
2022-10-20T14:16:57.384Z,14.17
2022-10-20T14:19:28.822Z,14.12
2022-10-20T14:22:10.758Z,14.16
2022-10-20T14:24:43.944Z,14.00
2022-10-20T14:27:20.280Z,13.98
2022-10-20T14:29:49.942Z,13.89
2022-10-20T14:32:22.627Z,13.86
2022-10-20T14:35:02.548Z,13.77
2022-10-20T14:37:36.909Z,13.59
2022-10-20T14:40:19.727Z,13.50
2022-10-20T14:42:48.195Z,13.36
2022-10-20T14:45:21.920Z,13.33
2022-10-20T14:47:51.772Z,13.32
2022-10-20T14:50:28.090Z,13.28
2022-10-20T14:52:58.316Z,13.27
2022-10-20T14:55:38.063Z,13.23
2022-10-20T14:58:28.581Z,13.18
2022-10-20T15:01:26.367Z,13.17
2022-10-20T15:04:18.141Z,13.09
2022-10-20T15:06:46.760Z,13.09
2022-10-20T15:09:31.678Z,12.98
2022-10-20T15:12:05.126Z,12.99
2022-10-20T15:14:33.510Z,12.98
2022-10-20T15:17:02.248Z,12.87
2022-10-20T15:19:36.763Z,12.84
2022-10-20T15:24:44.712Z,12.68
2022-10-20T15:27:17.714Z,12.69
2022-10-20T15:29:51.422Z,12.68
2022-10-20T15:32:20.070Z,12.76
2022-10-20T15:34:48.356Z,12.68
2022-10-20T15:37:16.742Z,12.64
2022-10-20T15:39:46.572Z,12.60
2022-10-20T15:42:15.290Z,12.59
2022-10-20T15:44:43.631Z,12.58
2022-10-20T15:47:11.953Z,12.50
2022-10-20T15:49:40.629Z,12.44
2022-10-20T15:52:09.356Z,12.49
2022-10-20T15:54:37.785Z,12.36
2022-10-20T15:57:07.599Z,12.21
2022-10-20T15:59:36.379Z,12.23
2022-10-20T16:02:05.022Z,12.25
2022-10-20T16:04:33.438Z,12.19
2022-10-20T16:07:03.237Z,12.17
2022-10-20T16:09:32.038Z,12.15
2022-10-20T16:12:00.380Z,12.14
2022-10-20T16:14:30.153Z,12.01
2022-10-20T16:17:01.479Z,12.01
2022-10-20T16:19:30.325Z,11.95
2022-10-20T16:21:58.962Z,11.99
2022-10-20T16:24:27.595Z,11.99
2022-10-20T16:26:55.932Z,12.01
2022-10-20T16:29:24.605Z,12.00
2022-10-20T16:31:54.677Z,11.97
2022-10-20T16:34:22.980Z,11.92
2022-10-20T16:36:52.086Z,11.80
2022-10-20T16:39:20.962Z,11.84
2022-10-20T16:41:49.712Z,11.82
2022-10-20T16:44:18.390Z,11.81
2022-10-20T16:46:46.781Z,11.81
2022-10-20T16:49:16.522Z,11.78
2022-10-20T16:51:45.178Z,11.78
2022-10-20T16:54:13.899Z,11.78
2022-10-20T16:56:42.614Z,11.74
2022-10-20T16:59:10.954Z,11.72
2022-10-20T17:01:39.380Z,11.68
2022-10-20T17:04:08.015Z,11.62
2022-10-20T17:06:37.794Z,11.54
2022-10-20T17:09:07.900Z,11.47
2022-10-20T17:11:36.593Z,11.41
2022-10-20T17:14:05.477Z,11.51
2022-10-20T17:16:38.179Z,11.51
2022-10-20T17:19:07.367Z,11.38
2022-10-20T17:21:37.932Z,11.36
2022-10-20T17:24:11.405Z,11.27
2022-10-20T17:26:40.972Z,11.23
2022-10-20T17:29:09.622Z,11.19
2022-10-20T17:31:39.234Z,11.17
2022-10-20T17:34:08.485Z,11.21
2022-10-20T17:36:38.711Z,11.26
2022-10-20T17:39:09.856Z,11.25
2022-10-20T17:41:39.135Z,11.25
2022-10-20T17:44:09.607Z,11.13
2022-10-20T17:46:43.445Z,11.04
2022-10-20T17:49:20.533Z,10.99
2022-10-20T17:51:52.790Z,11.05
2022-10-20T17:54:24.146Z,11.11
2022-10-20T17:56:53.615Z,11.15
2022-10-20T17:59:27.129Z,11.20
2022-10-20T18:02:06.816Z,11.28
2022-10-20T18:05:02.292Z,11.21
2022-10-20T18:07:35.655Z,11.13
2022-10-20T18:10:14.669Z,11.12
2022-10-20T18:12:44.671Z,11.13
2022-10-20T18:15:38.226Z,11.12
2022-10-20T18:18:19.688Z,11.03
2022-10-20T18:21:10.919Z,10.99
2022-10-20T18:23:46.086Z,10.97
2022-10-20T18:26:23.129Z,10.90
2022-10-20T18:28:52.711Z,10.80
2022-10-20T18:31:26.315Z,10.74
2022-10-20T18:34:02.661Z,10.68
2022-10-20T18:36:42.075Z,10.68
2022-10-20T18:39:17.178Z,10.63
2022-10-20T18:41:46.614Z,10.56
2022-10-20T18:44:19.582Z,10.52
2022-10-20T18:46:49.253Z,10.49
2022-10-20T18:49:21.683Z,10.51
2022-10-20T18:51:50.854Z,10.51
2022-10-20T18:54:24.340Z,10.47
2022-10-20T18:56:53.239Z,10.42
2022-10-20T18:59:23.060Z,10.34
2022-10-20T19:01:53.763Z,10.28
2022-10-20T19:04:24.414Z,10.32
2022-10-20T19:06:54.151Z,10.33
2022-10-20T19:09:25.367Z,10.32
2022-10-20T19:11:56.203Z,10.35
2022-10-20T19:14:26.143Z,10.38
2022-10-20T19:16:55.249Z,10.39
2022-10-20T19:19:24.843Z,10.38
2022-10-20T19:21:54.325Z,10.37
2022-10-20T19:24:26.153Z,10.28
2022-10-20T19:29:48.053Z,10.25
2022-10-20T19:32:19.765Z,10.25
2022-10-20T19:34:49.656Z,10.27
2022-10-20T19:37:18.683Z,10.27
2022-10-20T19:39:49.346Z,10.31
2022-10-20T19:42:19.073Z,10.31
2022-10-20T19:44:50.514Z,10.40
2022-10-20T19:47:21.403Z,10.50
2022-10-20T19:49:55.029Z,10.56
2022-10-20T19:52:26.199Z,10.54
2022-10-20T19:55:04.706Z,10.52
2022-10-20T19:57:34.778Z,10.56
2022-10-20T20:00:05.591Z,10.63
2022-10-20T20:02:35.406Z,10.61
2022-10-20T20:05:05.110Z,10.68
2022-10-20T20:07:38.532Z,10.69
2022-10-20T20:12:40.138Z,10.55
2022-10-20T20:15:08.987Z,10.59
2022-10-20T20:17:37.932Z,10.61
2022-10-20T20:20:07.659Z,10.64
2022-10-20T20:22:35.986Z,10.69
2022-10-20T20:25:04.929Z,10.78
2022-10-20T20:27:34.817Z,10.84
2022-10-20T20:30:04.276Z,10.94
2022-10-20T20:32:33.333Z,10.98
2022-10-20T20:37:36.613Z,10.97
2022-10-20T20:40:06.190Z,10.90
2022-10-20T20:42:35.818Z,10.77
2022-10-20T20:45:04.508Z,10.73
2022-10-20T20:47:33.751Z,10.76
2022-10-20T20:50:02.338Z,10.80
2022-10-20T20:52:30.655Z,10.94
2022-10-20T20:54:59.268Z,10.99
2022-10-20T20:57:29.729Z,11.03
2022-10-20T20:59:59.371Z,11.01
2022-10-20T21:02:28.017Z,11.03
2022-10-20T21:04:56.336Z,10.99
2022-10-20T21:07:24.678Z,10.90
2022-10-20T21:09:53.311Z,10.85
2022-10-20T21:12:21.954Z,10.87
2022-10-20T21:14:50.228Z,10.92
2022-10-20T21:17:20.030Z,10.97
2022-10-20T21:19:48.661Z,11.00
2022-10-20T21:22:17.264Z,10.98
2022-10-20T21:24:45.885Z,10.94
2022-10-20T21:27:14.639Z,10.83
2022-10-20T21:29:45.665Z,10.74
2022-10-20T21:32:18.352Z,10.79
2022-10-20T21:34:48.414Z,10.75
2022-10-20T21:37:17.099Z,10.70
2022-10-20T21:39:45.691Z,10.67
2022-10-20T21:42:14.297Z,10.56
2022-10-20T21:44:43.057Z,10.52
2022-10-20T21:47:11.772Z,10.46
2022-10-20T21:49:40.368Z,10.52
2022-10-20T21:52:10.043Z,10.57
2022-10-20T21:54:38.679Z,10.67
2022-10-20T21:57:07.307Z,10.62
2022-10-20T21:59:35.558Z,10.55
2022-10-20T22:02:04.181Z,10.59
2022-10-20T22:04:32.902Z,10.57
2022-10-20T22:07:01.552Z,10.52
2022-10-20T22:09:31.438Z,10.52
2022-10-20T22:12:00.070Z,10.42
2022-10-20T22:14:30.586Z,10.41
2022-10-20T22:16:59.420Z,10.41
2022-10-20T22:19:28.031Z,10.39
2022-10-20T22:24:31.572Z,10.32
2022-10-20T22:27:00.290Z,10.28
2022-10-20T22:29:29.763Z,10.25
2022-10-20T22:31:58.390Z,10.21
2022-10-20T22:34:26.965Z,10.24
2022-10-20T22:36:55.605Z,10.34
2022-10-20T22:39:24.238Z,10.48
2022-10-20T22:41:54.241Z,10.56
2022-10-20T22:44:22.825Z,10.62
2022-10-20T22:46:51.423Z,10.67
2022-10-20T22:49:19.669Z,10.67
2022-10-20T22:51:48.271Z,10.56
2022-10-20T22:54:16.500Z,10.48
2022-10-20T22:56:45.122Z,10.40
2022-10-20T22:59:15.088Z,10.27
2022-10-20T23:01:45.592Z,10.20
2022-10-20T23:04:14.395Z,10.20
2022-10-20T23:06:43.023Z,10.22
2022-10-20T23:09:11.678Z,10.26
2022-10-20T23:11:40.383Z,10.31
2022-10-20T23:14:08.990Z,10.25
2022-10-20T23:16:38.649Z,10.27
2022-10-20T23:19:07.272Z,10.26
2022-10-20T23:21:36.017Z,10.19
2022-10-20T23:24:04.793Z,10.12
2022-10-20T23:26:33.417Z,10.05
2022-10-20T23:29:02.618Z,10.08
2022-10-20T23:31:31.392Z,10.13
2022-10-20T23:34:01.497Z,10.15
2022-10-20T23:36:30.140Z,10.20
2022-10-20T23:38:58.755Z,10.16
2022-10-20T23:41:27.416Z,10.16
2022-10-20T23:43:55.997Z,10.18
2022-10-20T23:46:24.812Z,10.16
2022-10-20T23:48:53.415Z,10.22
2022-10-20T23:51:23.422Z,10.23
2022-10-20T23:53:52.286Z,10.22
2022-10-20T23:56:21.007Z,10.19
2022-10-20T23:58:49.650Z,10.23
